METAR de aeropuertos de Murcia y cercanos

 

LEMI - Murcia/Corvera
Actualización: 17/06/2019 17:00
Despejado
Despejado
 Viento del SSE
Viento: SSE 19 km/h
Temperatura: 28°C
Rocío: 8°C
Humedad: 28%
Barómetro: 1016 hPa
Resumen: Despejado
Visibilidad: greater than 10 km
2019/06/17 15:00 LEMI 171500Z 15010KT 100V200 CAVOK 28/08 Q1016
LERI - Murcia/Alcantarilla
Actualización: 17/06/2019 17:00
Despejado
Despejado
 Viento del SE
Viento: SE 19 km/h
Temperatura: 32°C
Rocío: 8°C
Humedad: 22%
Barómetro: 1014 hPa
Resumen: Despejado
Visibilidad: greater than 10 km
2019/06/17 15:00 LERI 171500Z 14010KT 110V180 CAVOK 32/08 Q1014 NOSIG
LELC - Murcia/San Javier
Actualización: 17/06/2019 17:00
Despejado
Despejado
 Viento del SE
Viento: SE 19 km/h
Temperatura: 26°C
Rocío: 16°C
Humedad: 54%
Barómetro: 1015 hPa
Resumen: Despejado
Visibilidad: greater than 10 km
2019/06/17 15:00 LELC 171500Z 14010KT 110V170 CAVOK 26/16 Q1015 NOSIG
 
LEAL - Alicante
Actualización: 17/06/2019 17:00
Few Clouds
Few Clouds
 Viento del ESE
Viento: ESE 17 km/h
Temperatura: 25°C
Rocío: 16°C
Humedad: 57%
Barómetro: 1016 hPa
Nubosidad: Few Clouds
Visibilidad: 10 km
Cloud details: Few Clouds 305 m
2019/06/17 15:00 LEAL 171500Z 11009KT 070V150 9999 FEW010 25/16 Q1016 NOSIG
LEAB - Albacete
Actualización: 17/06/2019 17:00
Despejado
Despejado
 Viento del E
Viento: E 11 km/h
Temperatura: 30°C
Rocío: 4°C
Humedad: 19%
Barómetro: 1016 hPa
Resumen: Despejado
Visibilidad: greater than 10 km
2019/06/17 15:00 LEAB 171500Z 10006KT 010V180 CAVOK 30/04 Q1016 NOSIG
LEAM - Almería
Actualización: 17/06/2019 17:00
Despejado
Despejado
 Viento del S
Viento: S 11 km/h
Temperatura: 22°C
Rocío: 18°C
Humedad: 78%
Barómetro: 1016 hPa
Resumen: Despejado
Visibilidad: greater than 10 km
2019/06/17 15:00 LEAM 171500Z 19006KT 140V240 CAVOK 22/18 Q1016

La estación de MeteoMurcia.com, publica sus datos en los siguientes proyectos:

Weather Underground PWS IMURCIAP2 Meteoclimatic www.awekas.at

W3Counter
Web Analytics